createdAt,value
2018-01-15T00:00:33.805Z,8.40
2018-01-15T00:03:01.995Z,7.45
2018-01-15T00:05:30.795Z,9.02
2018-01-15T00:07:58.955Z,9.25
2018-01-15T00:10:37.129Z,9.57
2018-01-15T00:13:06.095Z,10.80
2018-01-15T00:15:34.270Z,12.05
2018-01-15T00:18:02.426Z,11.00
2018-01-15T00:20:30.702Z,12.30
2018-01-15T00:22:58.869Z,12.23
2018-01-15T00:25:27.800Z,12.80
2018-01-15T00:27:55.987Z,11.98
2018-01-15T00:30:25.241Z,14.13
2018-01-15T00:32:53.428Z,11.12
2018-01-15T00:35:21.606Z,12.80
2018-01-15T00:37:49.860Z,14.95
2018-01-15T00:40:22.025Z,14.15
2018-01-15T00:42:53.785Z,12.30
2018-01-15T00:45:21.932Z,13.35
2018-01-15T00:47:50.948Z,12.10
2018-01-15T00:50:22.712Z,13.73
2018-01-15T00:52:50.886Z,12.57
2018-01-15T00:55:23.364Z,16.52
2018-01-15T00:57:51.548Z,12.98
2018-01-15T01:00:22.805Z,12.02
2018-01-15T01:02:51.890Z,12.73
2018-01-15T01:05:20.035Z,12.10
2018-01-15T01:07:48.206Z,11.02
2018-01-15T01:10:17.305Z,11.45
2018-01-15T01:12:45.461Z,11.02
2018-01-15T01:15:14.387Z,11.00
2018-01-15T01:17:42.551Z,12.15
2018-01-15T01:20:10.824Z,11.00
2018-01-15T01:22:38.980Z,9.32
2018-01-15T01:25:07.907Z,9.90
2018-01-15T01:27:36.167Z,9.88
2018-01-15T01:30:05.174Z,11.32
2018-01-15T01:32:33.327Z,12.20
2018-01-15T01:35:01.489Z,13.40
2018-01-15T01:37:29.654Z,10.90
2018-01-15T01:39:57.869Z,11.50
2018-01-15T01:42:26.082Z,10.65
2018-01-15T01:44:54.245Z,11.68
2018-01-15T01:47:22.397Z,10.65
2018-01-15T01:49:50.964Z,10.98
2018-01-15T01:52:19.244Z,11.55
2018-01-15T01:54:47.409Z,10.23
2018-01-15T01:57:15.573Z,9.98
2018-01-15T01:59:43.741Z,12.07
2018-01-15T02:02:13.024Z,8.95
2018-01-15T02:04:41.238Z,9.60
2018-01-15T02:07:09.397Z,9.38
2018-01-15T02:09:37.555Z,11.30
2018-01-15T02:12:05.721Z,11.00
2018-01-15T02:14:33.876Z,11.23
2018-01-15T02:17:02.033Z,10.00
2018-01-15T02:19:30.188Z,10.68
2018-01-15T02:22:05.597Z,11.02
2018-01-15T02:24:35.271Z,11.12
2018-01-15T02:27:03.506Z,11.48
2018-01-15T02:29:31.660Z,12.73
2018-01-15T02:32:00.609Z,11.60
2018-01-15T02:34:28.774Z,12.00
2018-01-15T02:36:56.941Z,11.18
2018-01-15T02:39:25.115Z,12.10
2018-01-15T02:41:53.361Z,10.88
2018-01-15T02:44:21.532Z,10.25
2018-01-15T02:46:49.696Z,11.57
2018-01-15T02:49:17.861Z,9.63
2018-01-15T02:51:46.063Z,11.00
2018-01-15T02:54:14.250Z,10.13
2018-01-15T02:56:42.416Z,12.00
2018-01-15T02:59:10.690Z,11.82
2018-01-15T03:01:38.977Z,10.73
2018-01-15T03:04:07.169Z,11.27
2018-01-15T03:06:35.329Z,12.40
2018-01-15T03:09:03.528Z,11.35
2018-01-15T03:11:32.690Z,13.27
2018-01-15T03:14:00.857Z,13.65
2018-01-15T03:16:29.021Z,12.40
2018-01-15T03:18:57.182Z,10.52
2018-01-15T03:21:25.384Z,12.68
2018-01-15T03:23:53.550Z,12.70
2018-01-15T03:26:21.710Z,12.70
2018-01-15T03:28:49.873Z,12.90
2018-01-15T03:31:18.083Z,15.10
2018-01-15T03:33:46.237Z,12.70
2018-01-15T03:36:15.165Z,13.20
2018-01-15T03:38:43.326Z,12.68
2018-01-15T03:41:11.585Z,13.98
2018-01-15T03:43:39.750Z,13.95
2018-01-15T03:46:08.677Z,14.60
2018-01-15T03:48:36.851Z,13.88
2018-01-15T03:51:05.116Z,12.40
2018-01-15T03:53:33.265Z,15.65
2018-01-15T03:56:02.200Z,12.73
2018-01-15T03:58:30.352Z,13.23
2018-01-15T04:01:04.433Z,13.52
2018-01-15T04:03:32.658Z,15.02
2018-01-15T04:06:00.902Z,15.18
2018-01-15T04:08:29.069Z,14.73
2018-01-15T04:10:58.101Z,18.15
2018-01-15T04:13:27.177Z,16.25
2018-01-15T04:15:55.349Z,15.45
2018-01-15T04:18:23.508Z,14.73
2018-01-15T04:20:51.803Z,17.10
2018-01-15T04:23:19.983Z,16.45
2018-01-15T04:25:48.138Z,15.60
2018-01-15T04:28:16.298Z,14.63
2018-01-15T04:30:44.545Z,14.55
2018-01-15T04:33:12.704Z,15.80
2018-01-15T04:35:40.935Z,16.67
2018-01-15T04:38:09.057Z,15.00
2018-01-15T04:40:44.421Z,16.15
2018-01-15T04:43:12.579Z,14.82
2018-01-15T04:45:50.659Z,14.38
2018-01-15T04:48:18.856Z,13.45
2018-01-15T04:50:47.099Z,17.85
2018-01-15T04:53:17.112Z,15.10
2018-01-15T04:55:45.268Z,14.63
2018-01-15T04:58:13.693Z,18.67
2018-01-15T05:00:48.054Z,17.15
2018-01-15T05:03:16.205Z,16.98
2018-01-15T05:05:45.667Z,17.05
2018-01-15T05:08:14.614Z,16.90
2018-01-15T05:10:43.750Z,16.08
2018-01-15T05:13:11.919Z,16.98
2018-01-15T05:15:40.089Z,15.63
2018-01-15T05:18:08.271Z,16.65
2018-01-15T05:20:37.499Z,16.55
2018-01-15T05:23:05.670Z,17.05
2018-01-15T05:25:33.863Z,16.60
2018-01-15T05:28:02.049Z,17.45
2018-01-15T05:30:30.209Z,14.15
2018-01-15T05:32:58.364Z,18.00
2018-01-15T05:35:26.516Z,18.52
2018-01-15T05:37:54.685Z,18.08
2018-01-15T05:40:22.860Z,16.52
2018-01-15T05:42:51.125Z,20.58
2018-01-15T05:45:19.315Z,15.52
2018-01-15T05:47:47.488Z,17.50
2018-01-15T05:50:15.778Z,18.15
2018-01-15T05:52:46.085Z,15.85
2018-01-15T05:55:14.232Z,16.30
2018-01-15T05:57:42.428Z,16.20
2018-01-15T06:00:12.515Z,15.32
2018-01-15T06:02:40.673Z,15.63
2018-01-15T06:05:08.829Z,17.90
2018-01-15T06:07:37.689Z,17.15
2018-01-15T06:10:07.479Z,15.80
2018-01-15T06:12:35.639Z,15.15
2018-01-15T06:15:04.215Z,16.50
2018-01-15T06:17:32.377Z,14.98
2018-01-15T06:20:04.305Z,17.30
2018-01-15T06:22:33.026Z,16.40
2018-01-15T06:25:01.260Z,15.25
2018-01-15T06:27:29.438Z,16.48
2018-01-15T06:30:04.468Z,16.75
2018-01-15T06:32:43.589Z,15.85
2018-01-15T06:35:12.857Z,17.67
2018-01-15T06:37:48.706Z,16.27
2018-01-15T06:40:17.956Z,17.85
2018-01-15T06:42:46.105Z,19.58
2018-01-15T06:45:15.050Z,16.60
2018-01-15T06:47:43.206Z,19.73
2018-01-15T06:50:11.845Z,16.48
2018-01-15T06:52:40.440Z,19.48
2018-01-15T06:55:11.752Z,19.27
2018-01-15T06:57:39.961Z,18.77
2018-01-15T07:00:09.961Z,17.67
2018-01-15T07:02:38.165Z,19.27
2018-01-15T07:05:06.391Z,18.52
2018-01-15T07:07:34.576Z,19.52
2018-01-15T07:10:02.830Z,17.35
2018-01-15T07:12:30.997Z,18.48
2018-01-15T07:14:59.217Z,18.23
2018-01-15T07:17:27.784Z,20.17
2018-01-15T07:19:55.984Z,19.60
2018-01-15T07:22:24.145Z,20.08
2018-01-15T07:24:52.341Z,19.98
2018-01-15T07:27:21.272Z,18.92
2018-01-15T07:29:49.439Z,21.75
2018-01-15T07:32:18.683Z,21.35
2018-01-15T07:34:46.844Z,19.37
2018-01-15T07:37:15.022Z,20.23
2018-01-15T07:39:43.403Z,17.67
2018-01-15T07:42:12.371Z,19.08
2018-01-15T07:44:40.563Z,19.35
2018-01-15T07:47:08.810Z,17.15
2018-01-15T07:49:36.986Z,19.05
2018-01-15T07:52:06.436Z,21.35
2018-01-15T07:54:37.331Z,17.73
2018-01-15T07:57:06.427Z,18.42
2018-01-15T07:59:35.214Z,20.00
2018-01-15T08:02:03.383Z,19.23
2018-01-15T08:04:31.613Z,18.98
2018-01-15T08:06:59.893Z,20.20
2018-01-15T08:09:28.465Z,19.02
2018-01-15T08:11:56.674Z,17.60
2018-01-15T08:14:26.564Z,19.05
2018-01-15T08:16:55.680Z,19.77
2018-01-15T08:19:23.927Z,19.48
2018-01-15T08:21:56.081Z,19.42
2018-01-15T08:24:25.642Z,19.23
2018-01-15T08:26:53.843Z,19.33
2018-01-15T08:29:23.007Z,19.23
2018-01-15T08:31:53.652Z,21.58
2018-01-15T08:34:21.844Z,20.83
2018-01-15T08:36:50.359Z,18.30
2018-01-15T08:39:19.174Z,19.42
2018-01-15T08:44:59.789Z,17.52
2018-01-15T08:47:28.386Z,18.35
2018-01-15T08:50:05.274Z,18.27
2018-01-15T08:52:33.987Z,16.37
2018-01-15T09:06:42.172Z,18.90
2018-01-15T09:09:22.799Z,13.95
2018-01-15T09:12:01.462Z,15.32
2018-01-15T09:14:29.629Z,14.63
2018-01-15T09:17:04.127Z,14.27
2018-01-15T09:19:32.511Z,16.23
2018-01-15T09:22:00.736Z,16.80
2018-01-15T09:24:28.883Z,15.15
2018-01-15T09:26:58.688Z,15.25
2018-01-15T09:29:27.395Z,14.10
2018-01-15T09:31:57.170Z,13.57
2018-01-15T09:34:25.375Z,15.00
2018-01-15T09:36:54.294Z,12.93
2018-01-15T09:39:22.446Z,13.62
2018-01-15T09:41:52.389Z,12.60
2018-01-15T09:44:20.550Z,14.73
2018-01-15T09:46:48.723Z,12.07
2018-01-15T09:49:17.839Z,13.65
2018-01-15T09:51:46.352Z,15.38
2018-01-15T09:54:14.522Z,14.20
2018-01-15T09:56:42.673Z,15.35
2018-01-15T09:59:12.285Z,14.27
2018-01-15T10:01:40.453Z,14.23
2018-01-15T10:04:09.477Z,13.77
2018-01-15T10:06:37.629Z,12.48
2018-01-15T10:09:05.810Z,12.65
2018-01-15T10:11:33.983Z,12.93
2018-01-15T10:14:03.926Z,14.27
2018-01-15T10:16:34.499Z,14.20
2018-01-15T10:19:04.004Z,13.65
2018-01-15T10:21:42.092Z,10.30
2018-01-15T10:24:12.918Z,11.07
2018-01-15T10:26:41.132Z,11.55
2018-01-15T10:29:09.948Z,13.82
2018-01-15T10:31:41.130Z,15.13
2018-01-15T10:34:09.513Z,13.10
2018-01-15T10:36:40.194Z,9.88
2018-01-15T10:39:09.593Z,11.77
2018-01-15T10:41:39.502Z,13.80
2018-01-15T10:44:09.945Z,11.90
2018-01-15T10:46:39.968Z,12.60
2018-01-15T10:49:10.735Z,13.98
2018-01-15T10:51:39.747Z,15.48
2018-01-15T10:54:08.558Z,12.77
2018-01-15T10:56:37.192Z,13.50
2018-01-15T10:59:07.829Z,12.85
2018-01-15T11:01:43.977Z,14.10
2018-01-15T11:04:13.842Z,13.82
2018-01-15T11:06:43.051Z,12.43
2018-01-15T11:09:15.321Z,14.63
2018-01-15T11:11:49.304Z,14.70
2018-01-15T11:14:18.843Z,12.82
2018-01-15T11:16:49.368Z,14.85
2018-01-15T11:19:17.798Z,13.50
2018-01-15T11:21:56.022Z,13.50
2018-01-15T11:24:26.656Z,13.18
2018-01-15T11:26:58.536Z,13.35
2018-01-15T11:29:26.732Z,15.18
2018-01-15T11:31:55.652Z,14.30
2018-01-15T11:34:24.386Z,14.80
2018-01-15T11:36:53.370Z,13.52
2018-01-15T11:39:23.092Z,14.40
2018-01-15T11:41:52.171Z,13.45
2018-01-15T11:44:28.054Z,15.75
2018-01-15T11:46:58.341Z,13.90
2018-01-15T11:49:26.557Z,13.73
2018-01-15T11:51:54.749Z,13.68
2018-01-15T11:54:22.914Z,14.15
2018-01-15T11:56:51.072Z,13.10
2018-01-15T11:59:19.215Z,16.50
2018-01-15T12:01:48.386Z,13.10
2018-01-15T12:04:16.558Z,17.27
2018-01-15T12:06:45.641Z,12.80
2018-01-15T12:09:13.831Z,14.68
2018-01-15T12:11:48.377Z,14.80
2018-01-15T12:14:20.459Z,16.08
2018-01-15T12:16:48.609Z,15.50
2018-01-15T12:19:16.815Z,13.07
2018-01-15T12:21:48.576Z,13.88
2018-01-15T12:24:16.793Z,15.95
2018-01-15T12:26:45.513Z,14.18
2018-01-15T12:29:14.447Z,15.00
2018-01-15T12:31:43.744Z,14.25
2018-01-15T12:34:11.896Z,12.90
2018-01-15T12:36:40.074Z,14.60
2018-01-15T12:39:08.229Z,14.13
2018-01-15T12:41:37.240Z,14.02
2018-01-15T12:44:05.415Z,14.40
2018-01-15T12:46:34.332Z,13.70
2018-01-15T12:49:02.527Z,14.05
2018-01-15T12:51:30.774Z,13.45
2018-01-15T12:53:58.950Z,15.20
2018-01-15T12:56:28.313Z,13.90
2018-01-15T12:58:56.466Z,13.02
2018-01-15T13:01:24.685Z,11.35
2018-01-15T13:03:53.101Z,12.20
2018-01-15T13:06:21.253Z,13.02
2018-01-15T13:09:08.942Z,13.10
2018-01-15T13:11:37.095Z,12.88
2018-01-15T13:14:05.260Z,12.80
2018-01-15T13:16:33.413Z,13.32
2018-01-15T13:19:02.280Z,12.68
2018-01-15T13:21:30.561Z,12.23
2018-01-15T13:23:58.801Z,12.30
2018-01-15T13:26:26.967Z,13.98
2018-01-15T13:28:55.148Z,13.07
2018-01-15T13:31:30.194Z,14.20
2018-01-15T13:34:02.081Z,12.85
2018-01-15T13:36:30.235Z,12.57
2018-01-15T13:38:59.232Z,12.77
2018-01-15T13:41:27.509Z,13.48
2018-01-15T13:43:55.660Z,14.77
2018-01-15T13:46:23.817Z,13.40
2018-01-15T13:48:51.968Z,14.68
2018-01-15T13:51:20.214Z,15.57
2018-01-15T13:53:48.394Z,12.45
2018-01-15T13:56:16.562Z,13.50
2018-01-15T13:58:45.483Z,14.23
2018-01-15T14:01:13.758Z,17.85
2018-01-15T14:03:41.912Z,14.57
2018-01-15T14:06:10.058Z,13.23
2018-01-15T14:08:38.226Z,15.50
2018-01-15T14:11:06.429Z,20.88
2018-01-15T14:13:34.588Z,14.93
2018-01-15T14:16:03.517Z,15.38
2018-01-15T14:18:31.686Z,16.55
2018-01-15T14:20:59.994Z,15.93
2018-01-15T14:23:28.216Z,18.80
2018-01-15T14:25:56.361Z,18.58
2018-01-15T14:28:24.522Z,16.25
2018-01-15T14:30:59.518Z,21.52
2018-01-15T14:33:28.562Z,19.40
2018-01-15T14:35:56.721Z,19.10
2018-01-15T14:38:24.864Z,18.00
2018-01-15T14:40:53.123Z,16.15
2018-01-15T14:43:21.285Z,17.90
2018-01-15T14:45:49.503Z,15.27
2018-01-15T14:48:17.677Z,15.82
2018-01-15T14:50:53.457Z,16.92
2018-01-15T14:53:21.676Z,14.90
2018-01-15T14:55:49.835Z,16.75
2018-01-15T14:58:18.761Z,16.10
2018-01-15T15:00:48.956Z,14.45
2018-01-15T15:03:17.123Z,15.10
2018-01-15T15:05:45.284Z,15.57
2018-01-15T15:08:13.429Z,14.45
2018-01-15T15:10:41.648Z,15.02
2018-01-15T15:13:09.809Z,15.98
2018-01-15T15:15:38.757Z,15.95
2018-01-15T15:18:06.901Z,16.05
2018-01-15T15:20:35.177Z,15.75
2018-01-15T15:23:03.328Z,18.15
2018-01-15T15:25:32.250Z,19.83
2018-01-15T15:28:00.393Z,17.27
2018-01-15T15:30:35.303Z,18.65
2018-01-15T15:33:03.475Z,17.35
2018-01-15T15:35:35.146Z,16.05
2018-01-15T15:38:04.077Z,17.25
2018-01-15T15:40:32.364Z,15.02
2018-01-15T15:43:00.558Z,13.60
2018-01-15T15:45:30.191Z,14.25
2018-01-15T15:47:58.352Z,16.52
2018-01-15T15:50:27.155Z,15.75
2018-01-15T15:52:56.089Z,18.15
2018-01-15T15:55:25.220Z,17.27
2018-01-15T15:57:53.425Z,15.35
2018-01-15T16:00:22.546Z,14.65
2018-01-15T16:02:50.873Z,13.90
2018-01-15T16:05:19.732Z,12.52
2018-01-15T16:07:47.899Z,11.63
2018-01-15T16:10:24.157Z,11.40
2018-01-15T16:12:52.340Z,12.05
2018-01-15T16:15:21.252Z,12.30
2018-01-15T16:17:49.461Z,10.98
2018-01-15T16:20:17.996Z,10.95
2018-01-15T16:22:59.509Z,10.73
2018-01-15T16:25:28.562Z,10.75
2018-01-15T16:27:57.612Z,10.82
2018-01-15T16:30:26.412Z,11.80
2018-01-15T16:32:55.338Z,12.15
2018-01-15T16:35:24.618Z,11.95
2018-01-15T16:37:53.075Z,11.73
2018-01-15T16:40:23.310Z,10.73
2018-01-15T16:42:52.148Z,12.73
2018-01-15T16:45:22.792Z,13.93
2018-01-15T16:47:51.203Z,14.57
2018-01-15T16:50:26.952Z,16.00
2018-01-15T16:52:55.184Z,14.77
2018-01-15T16:55:24.025Z,16.25
2018-01-15T16:57:52.174Z,16.40
2018-01-15T17:00:23.317Z,16.05
2018-01-15T17:02:51.531Z,14.02
2018-01-15T17:05:22.518Z,17.30
2018-01-15T17:07:51.284Z,13.70
2018-01-15T17:10:22.009Z,14.98
2018-01-15T17:12:50.958Z,16.55
2018-01-15T17:15:20.603Z,16.10
2018-01-15T17:17:48.848Z,17.83
2018-01-15T17:20:18.457Z,15.07
2018-01-15T17:22:47.393Z,15.68
2018-01-15T17:25:17.044Z,19.73
2018-01-15T17:27:46.014Z,17.37
2018-01-15T17:30:16.932Z,19.70
2018-01-15T17:32:45.419Z,20.67
2018-01-15T17:35:14.778Z,15.15
2018-01-15T17:37:43.161Z,13.85
2018-01-15T17:40:13.106Z,14.13
2018-01-15T17:42:41.276Z,13.13
2018-01-15T17:45:11.678Z,12.18
2018-01-15T17:47:40.154Z,26.08
2018-01-15T17:50:17.171Z,12.25
2018-01-15T17:52:45.921Z,12.90
2018-01-15T17:55:18.158Z,12.18
2018-01-15T17:57:47.400Z,14.55
2018-01-15T18:00:17.402Z,15.52
2018-01-15T18:02:46.877Z,15.05
2018-01-15T18:05:16.533Z,14.68
2018-01-15T18:07:45.712Z,16.00
2018-01-15T18:10:20.896Z,15.88
2018-01-15T18:12:50.233Z,15.52
2018-01-15T18:15:22.738Z,18.05
2018-01-15T18:17:51.793Z,23.33
2018-01-15T18:20:20.039Z,27.13
2018-01-15T18:22:48.294Z,23.55
2018-01-15T18:25:18.398Z,23.40
2018-01-15T18:27:46.780Z,17.58
2018-01-15T18:30:22.116Z,15.10
2018-01-15T18:32:50.535Z,13.35
2018-01-15T18:35:18.766Z,16.17
2018-01-15T18:37:48.218Z,22.15
2018-01-15T18:40:17.454Z,19.02
2018-01-15T18:42:46.428Z,14.85
2018-01-15T18:45:14.612Z,12.20
2018-01-15T18:47:43.456Z,16.55
2018-01-15T18:50:11.649Z,10.95
2018-01-15T18:52:40.042Z,11.07
2018-01-15T18:55:12.356Z,12.02
2018-01-15T18:57:41.858Z,11.70
2018-01-15T19:00:10.283Z,11.12
2018-01-15T19:02:38.883Z,14.48
2018-01-15T19:05:07.425Z,12.20
2018-01-15T19:07:37.269Z,9.20
2018-01-15T19:10:05.629Z,10.20
2018-01-15T19:12:37.196Z,8.77
2018-01-15T19:15:07.338Z,8.45
2018-01-15T19:17:36.500Z,10.68
2018-01-15T19:20:07.289Z,10.27
2018-01-15T19:22:35.550Z,10.60
2018-01-15T19:25:06.516Z,10.13
2018-01-15T19:27:34.914Z,8.93
2018-01-15T19:30:03.694Z,8.35
2018-01-15T19:32:32.773Z,8.70
2018-01-15T19:35:14.621Z,8.30
2018-01-15T19:37:46.840Z,8.73
2018-01-15T19:40:22.106Z,8.68
2018-01-15T19:43:10.734Z,6.40
2018-01-15T19:45:44.542Z,7.65
2018-01-15T19:48:18.634Z,8.65
2018-01-15T19:50:54.028Z,7.47
2018-01-15T19:53:28.532Z,7.12
2018-01-15T19:56:03.994Z,6.45
2018-01-15T19:58:37.985Z,8.05
2018-01-15T20:01:12.988Z,5.50
2018-01-15T20:03:50.774Z,6.15
2018-01-15T20:06:26.216Z,7.40
2018-01-15T20:09:00.489Z,8.38
2018-01-15T20:11:29.425Z,7.07
2018-01-15T20:13:58.110Z,7.45
2018-01-15T20:16:26.262Z,7.20
2018-01-15T20:18:55.746Z,6.12
2018-01-15T20:21:25.957Z,6.62
2018-01-15T20:26:38.509Z,6.00
2018-01-15T20:29:10.039Z,5.97
2018-01-15T20:31:38.989Z,6.47
2018-01-15T20:34:07.161Z,5.37
2018-01-15T20:36:35.368Z,5.43
2018-01-15T20:39:03.516Z,5.50
2018-01-15T20:41:36.402Z,4.50
2018-01-15T20:44:05.038Z,4.68
2018-01-15T20:46:33.496Z,5.72
2018-01-15T20:49:02.615Z,4.35
2018-01-15T20:51:30.907Z,3.80
2018-01-15T20:54:00.311Z,5.00
2018-01-15T20:56:28.472Z,3.62
2018-01-15T20:58:56.680Z,4.87
2018-01-15T21:01:29.326Z,4.10
2018-01-15T21:03:57.612Z,4.45
2018-01-15T21:06:27.707Z,4.50
2018-01-15T21:08:55.904Z,5.37
2018-01-15T21:11:24.145Z,3.83
2018-01-15T21:13:53.444Z,4.68
2018-01-15T21:16:21.660Z,4.97
2018-01-15T21:18:49.815Z,4.43
2018-01-15T21:21:35.935Z,4.57
2018-01-15T21:24:04.481Z,4.60
2018-01-15T21:26:32.651Z,3.62
2018-01-15T21:29:00.905Z,4.43
2018-01-15T21:31:29.944Z,3.50
2018-01-15T21:33:59.418Z,3.92
2018-01-15T21:36:28.950Z,4.78
2018-01-15T21:38:57.208Z,3.55
2018-01-15T21:41:28.193Z,3.67
2018-01-15T21:43:56.488Z,2.35
2018-01-15T21:46:27.055Z,2.85
2018-01-15T21:48:56.964Z,3.05
2018-01-15T21:51:25.173Z,3.33
2018-01-15T21:53:53.326Z,1.83
2018-01-15T21:56:22.342Z,2.80
2018-01-15T21:58:50.509Z,2.10
2018-01-15T22:01:20.585Z,2.60
2018-01-15T22:03:48.765Z,2.55
2018-01-15T22:06:16.922Z,1.92
2018-01-15T22:08:45.073Z,1.83
2018-01-15T22:11:14.076Z,2.58
2018-01-15T22:13:42.235Z,2.50
2018-01-15T22:16:10.403Z,2.30
2018-01-15T22:18:38.627Z,2.12
2018-01-15T22:21:06.785Z,2.97
2018-01-15T22:23:34.968Z,1.90
2018-01-15T22:26:03.130Z,3.00
2018-01-15T22:28:31.351Z,1.70
2018-01-15T22:30:59.649Z,1.98
2018-01-15T22:33:27.883Z,1.85
2018-01-15T22:35:56.670Z,1.65
2018-01-15T22:38:24.921Z,1.87
2018-01-15T22:40:53.184Z,2.00
2018-01-15T22:43:21.387Z,2.50
2018-01-15T22:45:49.575Z,2.22
2018-01-15T22:48:18.391Z,2.10
2018-01-15T22:50:46.678Z,2.00
2018-01-15T22:53:14.889Z,2.10
2018-01-15T22:55:43.316Z,2.03
2018-01-15T22:58:11.534Z,2.60
2018-01-15T23:00:40.707Z,2.42
2018-01-15T23:03:09.054Z,2.20
2018-01-15T23:05:37.995Z,1.83
2018-01-15T23:08:06.162Z,1.70
2018-01-15T23:10:40.944Z,1.40
2018-01-15T23:13:09.119Z,2.25
2018-01-15T23:15:44.335Z,2.03
2018-01-15T23:18:13.786Z,1.40
2018-01-15T23:20:43.013Z,1.52
2018-01-15T23:23:11.232Z,1.15
2018-01-15T23:25:39.477Z,1.40
2018-01-15T23:28:07.628Z,1.62
2018-01-15T23:30:42.539Z,1.40
2018-01-15T23:33:11.454Z,1.65
2018-01-15T23:35:39.698Z,1.00
2018-01-15T23:38:09.016Z,1.20
2018-01-15T23:40:38.032Z,1.20
2018-01-15T23:43:06.286Z,1.50
2018-01-15T23:45:34.477Z,1.15
2018-01-15T23:48:02.640Z,1.30
2018-01-15T23:50:32.386Z,1.42
2018-01-15T23:53:00.544Z,1.35
2018-01-15T23:55:28.729Z,1.80
2018-01-15T23:57:56.912Z,1.25
